Time;durP1;ratioP1;P1;durP2;ratioP2;P2;SDS_P1;SDS_P2;PMS_P1;PMS_P2;Temp;Humidity;BMP_temperature;BMP_pressure;BME280_temperature;BME280_humidity;BME280_pressure;Samples;Min_cycle;Max_cycle;Signal;HPM_P1;HPM_P2
2022/09/11 00:01:06;;;;;;;6.25;3.28;;;16.80;99.90;;;;;;5054568;28;20917;-71
2022/09/11 00:03:32;;;;;;;3.85;2.63;;;16.80;99.90;;;;;;5072980;28;20056;-72
2022/09/11 00:06:04;;;;;;;3.88;2.58;;;16.80;99.90;;;;;;5070812;28;20048;-71
2022/09/11 00:08:30;;;;;;;3.47;2.70;;;16.80;99.90;;;;;;5062637;28;20044;-71
2022/09/11 00:11:03;;;;;;;7.05;2.97;;;16.80;99.90;;;;;;5072213;28;20480;-71
2022/09/11 00:13:30;;;;;;;4.43;2.90;;;16.70;99.90;;;;;;5061799;28;20047;-71
2022/09/11 00:15:56;;;;;;;5.95;2.72;;;16.70;99.90;;;;;;5064224;28;20025;-71
2022/09/11 00:18:22;;;;;;;3.88;2.63;;;16.70;99.90;;;;;;5071273;28;20128;-71
2022/09/11 00:20:54;;;;;;;5.00;2.60;;;16.70;99.90;;;;;;5054116;28;20492;-71
2022/09/11 00:23:22;;;;;;;3.72;2.78;;;16.70;99.90;;;;;;5066050;28;20048;-71
2022/09/11 00:25:49;;;;;;;4.28;2.38;;;16.60;99.90;;;;;;5046646;28;20245;-71
2022/09/11 00:28:18;;;;;;;5.97;2.80;;;16.70;99.90;;;;;;5069176;28;20041;-71
2022/09/11 00:30:45;;;;;;;4.78;2.83;;;16.70;99.90;;;;;;5071916;28;20784;-71
2022/09/11 00:33:13;;;;;;;4.43;2.78;;;16.70;99.90;;;;;;5051471;28;20120;-70
2022/09/11 00:35:40;;;;;;;9.25;3.38;;;16.70;99.90;;;;;;5054443;28;20110;-71
2022/09/11 00:38:07;;;;;;;7.03;2.75;;;16.60;99.90;;;;;;5068992;28;20062;-71
2022/09/11 00:40:45;;;;;;;6.97;3.42;;;16.60;99.90;;;;;;5052152;28;20064;-71
2022/09/11 00:43:16;;;;;;;6.28;3.00;;;16.50;99.90;;;;;;5044333;28;20046;-70
2022/09/11 00:45:43;;;;;;;4.60;2.37;;;16.60;99.90;;;;;;5046478;28;20167;-71
2022/09/11 00:48:13;;;;;;;5.53;2.92;;;16.60;99.90;;;;;;5052604;28;20291;-71
2022/09/11 00:50:42;;;;;;;3.95;2.33;;;16.50;99.90;;;;;;5060755;28;20144;-71
2022/09/11 00:53:10;;;;;;;5.13;2.85;;;16.50;99.90;;;;;;5070196;28;20143;-71
2022/09/11 00:55:40;;;;;;;4.20;2.92;;;16.50;99.90;;;;;;5059704;28;20045;-71
2022/09/11 00:58:13;;;;;;;3.90;2.35;;;16.50;99.90;;;;;;5068069;28;20119;-72
2022/09/11 01:00:43;;;;;;;4.50;2.83;;;16.50;99.90;;;;;;5052722;28;20044;-72
2022/09/11 01:03:08;;;;;;;5.63;2.65;;;16.50;99.90;;;;;;5044819;28;20831;-71
2022/09/11 01:05:38;;;;;;;6.55;2.47;;;16.50;99.90;;;;;;5071207;28;20049;-71
2022/09/11 01:08:05;;;;;;;3.78;2.60;;;16.40;99.90;;;;;;5051796;28;20048;-71
2022/09/11 01:10:58;;;;;;;5.10;2.80;;;16.40;99.90;;;;;;5050889;28;20272;-72
2022/09/11 01:13:46;;;;;;;5.70;3.05;;;16.40;99.90;;;;;;5061472;28;20068;-71
2022/09/11 01:16:31;;;;;;;6.38;3.60;;;16.40;99.90;;;;;;5045243;28;20051;-72
2022/09/11 01:19:24;;;;;;;6.28;3.45;;;16.40;99.90;;;;;;5068463;28;20079;-71
2022/09/11 01:22:05;;;;;;;8.95;3.97;;;16.40;99.90;;;;;;5069077;28;20040;-72
2022/09/11 01:25:05;;;;;;;4.07;2.63;;;16.30;99.90;;;;;;5062630;28;20067;-72
2022/09/11 01:27:43;;;;;;;4.13;2.83;;;16.30;99.90;;;;;;5066946;28;20037;-71
2022/09/11 01:30:19;;;;;;;5.90;3.42;;;16.30;99.90;;;;;;5050598;28;22026;-71
2022/09/11 01:32:54;;;;;;;4.75;2.60;;;16.30;99.90;;;;;;5045919;28;20136;-71
2022/09/11 01:35:28;;;;;;;5.05;2.80;;;16.20;99.90;;;;;;5085129;28;20033;-71
2022/09/11 01:37:59;;;;;;;7.53;2.90;;;16.20;99.90;;;;;;5062358;28;20549;-71
2022/09/11 01:40:36;;;;;;;7.78;4.47;;;16.20;99.90;;;;;;5045949;28;20639;-70
2022/09/11 01:43:12;;;;;;;8.88;3.55;;;16.20;99.90;;;;;;5053511;28;20538;-71
2022/09/11 01:45:43;;;;;;;5.32;2.55;;;16.20;99.90;;;;;;5085880;28;20041;-71
2022/09/11 01:48:12;;;;;;;3.83;2.23;;;16.20;99.90;;;;;;5046850;28;20055;-71
2022/09/11 01:50:41;;;;;;;4.20;2.83;;;16.20;99.90;;;;;;5061800;28;20048;-71
2022/09/11 01:53:11;;;;;;;4.53;3.08;;;16.20;99.90;;;;;;5049829;28;20544;-71
2022/09/11 01:55:42;;;;;;;3.67;2.25;;;16.10;99.90;;;;;;5050914;28;20349;-71
2022/09/11 01:58:17;;;;;;;4.97;3.15;;;16.10;99.90;;;;;;5049421;28;20041;-68
2022/09/11 02:00:48;;;;;;;4.07;2.60;;;16.10;99.90;;;;;;5067608;28;20041;-68
2022/09/11 02:03:30;;;;;;;8.10;3.20;;;16.10;99.90;;;;;;5050627;28;20047;-70
2022/09/11 02:05:59;;;;;;;;;;;16.10;99.90;;;;;;5069745;28;20083;-70
2022/09/11 02:08:45;;;;;;;4.30;2.95;;;16.10;99.90;;;;;;5064769;28;19920;-70
2022/09/11 02:11:14;;;;;;;4.78;2.65;;;16.00;99.90;;;;;;5068247;28;20234;-70
2022/09/11 02:13:51;;;;;;;5.65;2.88;;;16.10;99.90;;;;;;5051092;28;20041;-69
2022/09/11 02:16:41;;;;;;;4.30;2.88;;;16.00;99.90;;;;;;5068872;28;20585;-70
2022/09/11 02:19:12;;;;;;;6.63;3.13;;;16.00;99.90;;;;;;5070923;28;20045;-71
2022/09/11 02:21:39;;;;;;;7.40;3.83;;;16.00;99.90;;;;;;5064418;28;20559;-70
2022/09/11 02:24:05;;;;;;;4.60;3.17;;;16.00;99.90;;;;;;5063087;28;20470;-70
2022/09/11 02:26:37;;;;;;;5.55;2.63;;;16.00;99.90;;;;;;5065638;28;20052;-70
2022/09/11 02:29:03;;;;;;;5.93;3.60;;;15.90;99.90;;;;;;5052198;28;21242;-70
2022/09/11 02:31:30;;;;;;;5.65;3.53;;;16.00;99.90;;;;;;5047680;28;20886;-70
2022/09/11 02:33:56;;;;;;;5.45;3.65;;;15.90;99.90;;;;;;5066283;28;20087;-70
2022/09/11 02:36:31;;;;;;;6.47;4.00;;;15.90;99.90;;;;;;5052451;28;20041;-70
2022/09/11 02:39:43;;;;;;;6.40;4.07;;;15.90;99.90;;;;;;5055358;28;20036;-76
2022/09/11 02:42:55;;;;;;;5.47;4.50;;;15.90;99.90;;;;;;5052874;28;20604;-71
2022/09/11 02:45:53;;;;;;;6.40;3.75;;;15.90;99.90;;;;;;5042517;28;20731;-70
2022/09/11 02:48:37;;;;;;;5.78;4.10;;;15.80;99.90;;;;;;5061042;28;20052;-70
2022/09/11 02:51:36;;;;;;;5.97;3.30;;;15.80;99.90;;;;;;5069345;28;20040;-69
2022/09/11 02:54:29;;;;;;;6.53;4.72;;;15.90;99.90;;;;;;5048647;28;20049;-71
2022/09/11 02:57:06;;;;;;;6.90;3.35;;;15.80;99.90;;;;;;5061909;28;20040;-71
2022/09/11 02:59:41;;;;;;;7.18;3.38;;;15.80;99.90;;;;;;5070075;28;20106;-70
2022/09/11 03:02:13;;;;;;;7.30;3.72;;;15.80;99.90;;;;;;5066178;28;20076;-70
2022/09/11 03:04:39;;;;;;;;;;;15.80;99.90;;;;;;5055232;28;20106;-70
2022/09/11 03:07:05;;;;;;;5.88;3.60;;;15.80;99.90;;;;;;5072373;28;19927;-70
2022/09/11 03:09:33;;;;;;;7.75;4.35;;;15.70;99.90;;;;;;5065660;28;20095;-70
2022/09/11 03:12:00;;;;;;;8.00;3.30;;;15.70;99.90;;;;;;5054669;28;20037;-70
2022/09/11 03:14:26;;;;;;;5.93;3.38;;;15.70;99.90;;;;;;5069712;28;20041;-69
2022/09/11 03:16:52;;;;;;;6.95;3.47;;;15.70;99.90;;;;;;5071209;28;20922;-70
2022/09/11 03:19:18;;;;;;;7.07;3.47;;;15.70;99.90;;;;;;5046692;28;20041;-70
2022/09/11 03:21:44;;;;;;;7.07;3.90;;;15.60;99.90;;;;;;5064581;28;20041;-70
2022/09/11 03:24:10;;;;;;;9.00;4.10;;;15.70;99.90;;;;;;5048032;28;21043;-70
2022/09/11 03:26:36;;;;;;;8.68;3.85;;;15.70;99.90;;;;;;5053377;28;20048;-70
2022/09/11 03:29:02;;;;;;;7.28;4.75;;;15.70;99.90;;;;;;5054579;28;20609;-71
2022/09/11 03:31:28;;;;;;;7.13;4.00;;;15.60;99.90;;;;;;5053392;28;20111;-70
2022/09/11 03:33:54;;;;;;;6.13;4.10;;;15.70;99.90;;;;;;5064058;28;21183;-70
2022/09/11 03:36:21;;;;;;;7.47;4.50;;;15.60;99.90;;;;;;5062289;28;20538;-70
2022/09/11 03:38:47;;;;;;;5.80;3.25;;;15.40;99.90;;;;;;5054130;28;20095;-71
2022/09/11 03:41:14;;;;;;;8.18;4.57;;;15.60;99.90;;;;;;5053783;28;20455;-70
2022/09/11 03:43:39;;;;;;;8.18;4.05;;;15.60;99.90;;;;;;5053593;28;20697;-71
2022/09/11 03:46:05;;;;;;;8.15;4.43;;;15.60;99.90;;;;;;5053032;28;20387;-70
2022/09/11 03:48:32;;;;;;;10.15;4.47;;;15.60;99.90;;;;;;5061957;28;20127;-71
2022/09/11 03:50:57;;;;;;;7.68;4.32;;;15.60;99.90;;;;;;5072405;28;20036;-70
2022/09/11 03:53:24;;;;;;;7.78;4.45;;;15.60;99.90;;;;;;5063229;28;20526;-70
2022/09/11 03:55:50;;;;;;;5.75;4.03;;;15.60;99.90;;;;;;5052743;28;20044;-70
2022/09/11 03:58:19;;;;;;;6.72;4.35;;;15.50;99.90;;;;;;5069690;28;20431;-71
2022/09/11 04:00:46;;;;;;;9.02;4.90;;;15.50;99.90;;;;;;5070942;28;20773;-70
2022/09/11 04:03:14;;;;;;;6.82;4.25;;;15.50;99.90;;;;;;5062748;28;20041;-70
2022/09/11 04:05:40;;;;;;;7.47;4.65;;;15.50;99.90;;;;;;5064657;28;20209;-70
2022/09/11 04:08:06;;;;;;;5.88;3.70;;;15.50;99.90;;;;;;5053916;28;20052;-70
2022/09/11 04:10:33;;;;;;;6.57;3.90;;;15.50;99.90;;;;;;5052408;28;20044;-70
2022/09/11 04:13:00;;;;;;;6.35;4.25;;;15.50;99.90;;;;;;5060328;28;20055;-70
2022/09/11 04:15:26;;;;;;;5.70;3.80;;;15.40;99.90;;;;;;5070571;28;20035;-70
2022/09/11 04:17:52;;;;;;;6.93;3.75;;;15.50;99.90;;;;;;5048827;28;20603;-71
2022/09/11 04:20:18;;;;;;;5.63;4.10;;;15.50;99.90;;;;;;5063007;28;20091;-71
2022/09/11 04:22:44;;;;;;;5.53;3.83;;;15.50;99.90;;;;;;5071372;28;20051;-70
2022/09/11 04:25:11;;;;;;;9.25;4.97;;;15.40;99.90;;;;;;5069795;28;20437;-70
2022/09/11 04:27:37;;;;;;;8.25;3.92;;;15.40;99.90;;;;;;5050310;28;20044;-70
2022/09/11 04:30:04;;;;;;;6.05;4.43;;;15.30;99.90;;;;;;5051729;28;20970;-76
2022/09/11 04:32:30;;;;;;;8.00;4.25;;;15.40;99.90;;;;;;5051689;28;20129;-70
2022/09/11 04:34:56;;;;;;;8.48;4.85;;;15.30;99.90;;;;;;5050653;28;20050;-70
2022/09/11 04:37:21;;;;;;;9.20;4.68;;;15.40;99.90;;;;;;5050584;28;20045;-70
2022/09/11 04:39:47;;;;;;;7.70;4.70;;;15.30;99.90;;;;;;5062780;28;20132;-71
2022/09/11 04:42:13;;;;;;;7.32;3.95;;;15.30;99.90;;;;;;5068579;28;20079;-70
2022/09/11 04:44:39;;;;;;;10.18;5.03;;;15.30;99.90;;;;;;5051809;28;20045;-70
2022/09/11 04:47:05;;;;;;;10.13;4.72;;;15.30;99.90;;;;;;5065422;28;20127;-70
2022/09/11 04:49:31;;;;;;;16.58;5.80;;;15.30;99.90;;;;;;5048397;28;20454;-71
2022/09/11 04:52:01;;;;;;;16.33;5.78;;;15.40;99.90;;;;;;5061806;28;20071;-70
2022/09/11 04:54:27;;;;;;;12.07;6.88;;;15.40;99.90;;;;;;5054266;28;20037;-70
2022/09/11 04:56:53;;;;;;;11.45;5.97;;;15.40;99.90;;;;;;5051245;28;20044;-70
2022/09/11 04:59:21;;;;;;;13.68;6.13;;;15.40;99.90;;;;;;5053883;28;21133;-70
2022/09/11 05:01:47;;;;;;;14.63;5.60;;;15.40;99.90;;;;;;5070524;28;20095;-70
2022/09/11 05:04:15;;;;;;;14.98;6.75;;;15.40;99.90;;;;;;5055790;28;20525;-70
2022/09/11 05:06:41;;;;;;;13.50;5.20;;;15.30;99.90;;;;;;5055016;28;20576;-70
2022/09/11 05:09:09;;;;;;;13.43;5.88;;;15.40;99.90;;;;;;5054813;28;20545;-70
2022/09/11 05:11:37;;;;;;;11.43;4.60;;;15.30;99.90;;;;;;5071557;28;20048;-70
2022/09/11 05:14:03;;;;;;;13.13;5.00;;;15.30;99.90;;;;;;5045018;28;20143;-70
2022/09/11 05:16:29;;;;;;;6.72;4.15;;;15.30;99.90;;;;;;5062039;28;20041;-69
2022/09/11 05:18:56;;;;;;;9.27;4.22;;;15.30;99.90;;;;;;5051748;28;20047;-71
2022/09/11 05:21:23;;;;;;;9.20;3.80;;;15.30;99.90;;;;;;5049335;28;20198;-70
2022/09/11 05:23:51;;;;;;;11.20;3.65;;;15.20;99.90;;;;;;5061198;28;20055;-70
2022/09/11 05:26:19;;;;;;;7.90;4.65;;;15.20;99.90;;;;;;5070951;28;20221;-70
2022/09/11 05:28:45;;;;;;;6.90;3.78;;;15.20;99.90;;;;;;5045723;28;20044;-70
2022/09/11 05:31:14;;;;;;;8.43;3.35;;;15.20;99.90;;;;;;5070005;28;20542;-70
2022/09/11 05:33:41;;;;;;;5.78;3.95;;;15.20;99.90;;;;;;5069226;28;20095;-70
2022/09/11 05:36:07;;;;;;;5.55;3.08;;;15.20;99.90;;;;;;5071159;28;20048;-70
2022/09/11 05:38:35;;;;;;;5.13;3.10;;;15.20;99.90;;;;;;5051708;28;20079;-70
2022/09/11 05:41:01;;;;;;;4.57;2.83;;;15.20;99.90;;;;;;5068022;28;20537;-70
2022/09/11 05:43:27;;;;;;;7.45;3.50;;;15.20;99.90;;;;;;5049558;28;20037;-70
2022/09/11 05:45:55;;;;;;;6.22;3.67;;;15.10;99.90;;;;;;5070379;28;20041;-70
2022/09/11 05:48:21;;;;;;;6.07;3.05;;;15.20;99.90;;;;;;5046725;28;20102;-70
2022/09/11 05:50:54;;;;;;;6.88;3.47;;;15.10;99.90;;;;;;5073472;28;20582;-70
2022/09/11 05:53:21;;;;;;;4.78;2.72;;;15.10;99.90;;;;;;5053086;28;20052;-70
2022/09/11 05:55:48;;;;;;;8.63;3.28;;;15.10;99.90;;;;;;5072716;28;20148;-70
2022/09/11 05:58:16;;;;;;;7.50;3.35;;;15.10;99.90;;;;;;5057274;28;20128;-70
2022/09/11 06:00:45;;;;;;;5.95;3.35;;;15.10;99.90;;;;;;5051976;28;20490;-70
2022/09/11 06:03:15;;;;;;;6.47;2.97;;;15.10;99.90;;;;;;5068447;28;20037;-70
2022/09/11 06:05:41;;;;;;;5.78;3.30;;;15.10;99.90;;;;;;5056483;28;20037;-70
2022/09/11 06:08:08;;;;;;;5.70;3.67;;;15.10;99.90;;;;;;5067719;28;20064;-72
2022/09/11 06:10:46;;;;;;;6.47;3.83;;;15.00;99.90;;;;;;5058194;28;20048;-70
2022/09/11 06:13:12;;;;;;;8.57;4.30;;;15.10;99.90;;;;;;5069288;28;20045;-70
2022/09/11 06:15:45;;;;;;;6.13;3.65;;;15.10;99.90;;;;;;5073268;28;20118;-70
2022/09/11 06:18:12;;;;;;;9.30;3.63;;;15.10;99.90;;;;;;5051151;28;20040;-70
2022/09/11 06:20:38;;;;;;;6.18;3.63;;;15.10;99.90;;;;;;5056194;28;20102;-70
2022/09/11 06:23:04;;;;;;;5.13;3.83;;;15.10;99.90;;;;;;5054282;28;20521;-70
2022/09/11 06:25:29;;;;;;;7.85;5.13;;;15.10;99.90;;;;;;5070501;28;20051;-70
2022/09/11 06:27:55;;;;;;;11.10;5.38;;;15.10;99.90;;;;;;5052489;28;20531;-70
2022/09/11 06:30:21;;;;;;;7.43;4.53;;;15.10;99.90;;;;;;5073299;28;20048;-69
2022/09/11 06:32:50;;;;;;;6.85;4.13;;;15.10;99.90;;;;;;5075325;28;20896;-70
2022/09/11 06:35:16;;;;;;;7.95;5.25;;;15.10;99.90;;;;;;5052708;28;20032;-70
2022/09/11 06:37:42;;;;;;;6.78;4.15;;;15.10;99.90;;;;;;5053282;28;20098;-70
2022/09/11 06:40:08;;;;;;;5.25;3.40;;;15.10;99.90;;;;;;5065169;28;20481;-70
2022/09/11 06:42:34;;;;;;;5.25;3.63;;;15.10;99.90;;;;;;5054709;28;20043;-70
2022/09/11 06:45:01;;;;;;;8.20;4.05;;;15.10;99.90;;;;;;5070597;28;21246;-70
2022/09/11 06:47:27;;;;;;;7.45;4.15;;;15.10;99.90;;;;;;5063731;28;20051;-70
2022/09/11 06:49:53;;;;;;;6.15;3.83;;;15.10;99.90;;;;;;5053177;28;20136;-72
2022/09/11 06:52:19;;;;;;;6.07;3.95;;;15.20;99.90;;;;;;5072607;28;20048;-70
2022/09/11 06:54:45;;;;;;;8.52;4.35;;;15.20;99.90;;;;;;5049428;28;20065;-70
2022/09/11 06:57:11;;;;;;;6.57;4.35;;;15.20;99.90;;;;;;5052307;28;20407;-70
2022/09/11 06:59:37;;;;;;;10.52;4.15;;;15.10;99.90;;;;;;5054026;28;20136;-70
2022/09/11 07:02:03;;;;;;;8.32;4.95;;;15.10;99.90;;;;;;5054779;28;20462;-70
2022/09/11 07:04:28;;;;;;;9.57;4.85;;;15.10;99.90;;;;;;5065358;28;20033;-71
2022/09/11 07:07:22;;;;;;;6.78;3.60;;;15.20;99.90;;;;;;5062796;28;20037;-80
2022/09/11 07:09:47;;;;;;;5.80;3.95;;;15.10;99.90;;;;;;5065541;28;20143;-70
2022/09/11 07:12:13;;;;;;;5.93;3.97;;;14.70;99.90;;;;;;5068620;28;20050;-69
2022/09/11 07:14:40;;;;;;;5.55;4.18;;;15.10;99.90;;;;;;5055364;28;20076;-70
2022/09/11 07:17:06;;;;;;;6.53;3.45;;;15.20;99.90;;;;;;5057671;28;20040;-70
2022/09/11 07:19:32;;;;;;;9.80;4.78;;;15.20;99.90;;;;;;5055002;28;20055;-71
2022/09/11 07:21:58;;;;;;;11.93;5.45;;;15.20;99.90;;;;;;5067792;28;20067;-70
2022/09/11 07:24:24;;;;;;;8.63;5.30;;;15.20;99.90;;;;;;5089697;28;20075;-70
2022/09/11 07:26:49;;;;;;;8.35;5.13;;;15.30;99.90;;;;;;5054822;28;20045;-70
2022/09/11 07:29:16;;;;;;;9.50;5.13;;;15.30;99.90;;;;;;5072082;28;20066;-70
2022/09/11 07:31:42;;;;;;;8.93;5.53;;;15.30;99.90;;;;;;5057953;28;20044;-70
2022/09/11 07:34:09;;;;;;;12.93;7.38;;;15.40;99.90;;;;;;5055402;28;20083;-70
2022/09/11 07:36:36;;;;;;;11.63;7.45;;;15.50;99.90;;;;;;5066699;28;20047;-70
2022/09/11 07:39:02;;;;;;;11.73;6.68;;;15.60;99.90;;;;;;5072101;28;20066;-70
2022/09/11 07:41:30;;;;;;;10.00;5.68;;;15.60;99.90;;;;;;5056482;28;20040;-70
2022/09/11 07:43:59;;;;;;;8.93;5.90;;;15.60;99.90;;;;;;5075521;28;20075;-70
2022/09/11 07:46:25;;;;;;;11.63;6.63;;;15.70;99.90;;;;;;5072691;28;20980;-70
2022/09/11 07:48:52;;;;;;;11.52;7.13;;;15.70;99.90;;;;;;5054288;28;20147;-70
2022/09/11 07:51:18;;;;;;;11.55;6.07;;;15.70;99.90;;;;;;5051552;28;20029;-70
2022/09/11 07:53:46;;;;;;;12.07;6.78;;;15.80;99.90;;;;;;5069584;28;20036;-70
2022/09/11 07:56:18;;;;;;;10.65;7.22;;;15.80;99.90;;;;;;5051727;28;20246;-71
2022/09/11 07:58:44;;;;;;;10.90;6.75;;;15.90;99.90;;;;;;5045935;28;20045;-71
2022/09/11 08:01:15;;;;;;;11.65;6.28;;;15.90;99.90;;;;;;5049187;28;20045;-77
2022/09/11 08:03:42;;;;;;;13.90;7.00;;;15.90;99.90;;;;;;5058271;28;20041;-71
2022/09/11 08:06:17;;;;;;;14.25;6.88;;;15.90;99.90;;;;;;5074658;28;20410;-70
2022/09/11 08:08:43;;;;;;;11.27;8.27;;;15.90;99.90;;;;;;5055172;28;20095;-70
2022/09/11 08:11:12;;;;;;;13.20;6.63;;;15.90;99.90;;;;;;5056980;28;20028;-71
2022/09/11 08:13:38;;;;;;;10.80;7.25;;;15.90;99.90;;;;;;5061928;28;20577;-71
2022/09/11 08:16:05;;;;;;;12.63;7.55;;;15.90;99.90;;;;;;5054092;28;20041;-71
2022/09/11 08:18:31;;;;;;;11.95;8.38;;;15.90;99.90;;;;;;5047040;28;20045;-71
2022/09/11 08:21:07;;;;;;;11.45;7.35;;;16.00;99.90;;;;;;5087210;28;20567;-70
2022/09/11 08:23:33;;;;;;;12.05;7.97;;;16.00;99.90;;;;;;5049420;28;20102;-71
2022/09/11 08:26:14;;;;;;;12.73;7.75;;;16.00;99.90;;;;;;5065568;28;20048;-70
2022/09/11 08:28:43;;;;;;;10.48;6.43;;;16.00;99.90;;;;;;5064114;28;20045;-70
2022/09/11 08:31:10;;;;;;;11.73;7.63;;;16.00;99.90;;;;;;5071147;28;20048;-70
2022/09/11 08:33:37;;;;;;;14.52;7.85;;;16.10;99.90;;;;;;5048685;28;20049;-70
2022/09/11 08:36:07;;;;;;;11.68;7.40;;;16.10;99.90;;;;;;5065067;28;20044;-70
2022/09/11 08:38:33;;;;;;;12.18;7.45;;;16.10;99.90;;;;;;5056519;28;20131;-70
2022/09/11 08:41:09;;;;;;;11.10;7.13;;;16.10;99.90;;;;;;5049477;28;20502;-71
2022/09/11 08:43:43;;;;;;;12.40;7.35;;;16.20;99.90;;;;;;5052280;28;20048;-71
2022/09/11 08:46:14;;;;;;;10.77;7.03;;;16.20;99.90;;;;;;5048168;28;20041;-71
2022/09/11 08:48:48;;;;;;;11.93;6.97;;;16.20;99.90;;;;;;5050707;28;20083;-69
2022/09/11 08:51:16;;;;;;;13.80;7.53;;;16.20;99.90;;;;;;5064208;28;20033;-69
2022/09/11 08:53:44;;;;;;;9.65;6.10;;;16.30;99.90;;;;;;5063771;28;20613;-69
2022/09/11 08:56:16;;;;;;;9.43;6.75;;;16.30;99.90;;;;;;5049596;28;20588;-69
2022/09/11 08:58:57;;;;;;;9.73;6.28;;;16.40;99.90;;;;;;5072252;28;20530;-69
2022/09/11 09:01:27;;;;;;;14.38;7.75;;;16.40;99.90;;;;;;5063189;28;20128;-69
2022/09/11 09:04:31;;;;;;;10.63;6.85;;;16.40;99.90;;;;;;5052402;28;20037;-75
2022/09/11 09:07:09;;;;;;;10.30;6.32;;;16.40;99.90;;;;;;5065773;28;20083;-69
2022/09/11 09:09:41;;;;;;;9.95;6.40;;;16.40;99.90;;;;;;5068055;28;20056;-69
2022/09/11 09:12:40;;;;;;;18.60;6.82;;;16.40;99.90;;;;;;5053287;28;20649;-69
2022/09/11 09:15:37;;;;;;;11.43;7.20;;;16.40;99.90;;;;;;5069741;28;20051;-71
2022/09/11 09:18:24;;;;;;;13.10;8.18;;;16.50;99.90;;;;;;5051229;28;20091;-69
2022/09/11 09:21:01;;;;;;;9.35;6.38;;;16.40;99.90;;;;;;5068611;28;20123;-69
2022/09/11 09:23:40;;;;;;;10.73;7.18;;;16.40;99.90;;;;;;5062034;28;20040;-69
2022/09/11 09:26:16;;;;;;;12.73;7.43;;;16.40;99.90;;;;;;5056294;28;20053;-69
2022/09/11 09:28:45;;;;;;;11.13;6.72;;;16.50;99.90;;;;;;5049580;28;20066;-70
2022/09/11 09:31:14;;;;;;;9.07;6.80;;;16.40;99.90;;;;;;5048374;28;20187;-69
2022/09/11 09:33:47;;;;;;;11.65;6.47;;;16.50;99.90;;;;;;5069820;28;20036;-70
2022/09/11 09:36:30;;;;;;;9.95;6.57;;;16.50;99.90;;;;;;5072823;28;20044;-69
2022/09/11 09:38:57;;;;;;;8.77;5.97;;;16.50;99.90;;;;;;5071677;28;20037;-70
2022/09/11 09:42:10;;;;;;;9.68;7.40;;;16.60;99.90;;;;;;5072784;28;20041;-69
2022/09/11 09:45:03;;;;;;;6.63;4.50;;;16.60;99.90;;;;;;4970939;28;20047;-69
2022/09/11 09:47:29;;;;;;;6.72;4.60;;;16.70;99.90;;;;;;4996814;28;20109;-69
2022/09/11 09:49:58;;;;;;;9.18;4.15;;;16.70;99.90;;;;;;5046816;28;20107;-69
2022/09/11 09:52:29;;;;;;;7.03;3.97;;;16.70;99.90;;;;;;5054730;28;20056;-70
2022/09/11 09:55:00;;;;;;;7.57;3.60;;;16.80;99.90;;;;;;5072283;28;20107;-69
2022/09/11 09:57:33;;;;;;;8.60;4.40;;;16.80;99.90;;;;;;5065753;28;20040;-70
2022/09/11 10:00:08;;;;;;;8.20;4.82;;;16.90;99.90;;;;;;5054904;28;20115;-69
2022/09/11 10:02:57;;;;;;;6.07;3.80;;;16.90;99.90;;;;;;5066649;28;20040;-69
2022/09/11 10:05:28;;;;;;;5.40;2.83;;;16.90;99.90;;;;;;5049241;28;20045;-69
2022/09/11 10:07:56;;;;;;;3.55;2.55;;;17.00;99.90;;;;;;5066118;28;20045;-69
2022/09/11 10:10:36;;;;;;;4.93;2.63;;;16.90;99.90;;;;;;5072036;28;20075;-69
2022/09/11 10:13:23;;;;;;;2.92;2.28;;;17.00;99.90;;;;;;5053659;28;20130;-69
2022/09/11 10:15:52;;;;;;;3.53;2.25;;;17.10;99.90;;;;;;5074435;28;20076;-69
2022/09/11 10:18:41;;;;;;;3.25;2.22;;;17.10;99.90;;;;;;5055700;28;20037;-69
2022/09/11 10:21:21;;;;;;;3.63;2.25;;;17.10;99.90;;;;;;5073313;28;20546;-69
2022/09/11 10:24:02;;;;;;;5.30;2.95;;;17.20;99.90;;;;;;5065913;28;20138;-69
2022/09/11 10:26:42;;;;;;;5.68;2.55;;;17.20;99.90;;;;;;5056119;28;20557;-69
2022/09/11 10:29:25;;;;;;;3.83;1.88;;;17.30;99.90;;;;;;5071744;28;20051;-70
2022/09/11 10:31:58;;;;;;;2.85;2.22;;;17.30;99.90;;;;;;5056209;28;20059;-70
2022/09/11 10:34:25;;;;;;;3.08;1.77;;;17.40;99.90;;;;;;5051800;28;20054;-69
2022/09/11 10:36:59;;;;;;;3.10;2.20;;;17.40;99.90;;;;;;5068883;28;20083;-70
2022/09/11 10:39:27;;;;;;;3.40;2.42;;;17.40;99.90;;;;;;5057412;28;20078;-70
2022/09/11 10:41:58;;;;;;;4.63;2.08;;;17.40;99.90;;;;;;5090512;28;20514;-70
2022/09/11 10:44:26;;;;;;;5.22;1.80;;;17.50;99.90;;;;;;5056447;28;20040;-70
2022/09/11 10:47:16;;;;;;;3.00;1.60;;;17.50;99.90;;;;;;5067179;28;20080;-70
2022/09/11 10:49:42;;;;;;;2.33;1.92;;;17.50;99.90;;;;;;5068848;28;20036;-69
2022/09/11 10:52:07;;;;;;;4.70;2.17;;;17.50;99.90;;;;;;5058685;28;20164;-69
2022/09/11 10:54:58;;;;;;;4.35;1.48;;;17.60;99.90;;;;;;5076520;28;20051;-69
2022/09/11 10:57:27;;;;;;;2.55;1.48;;;17.70;99.90;;;;;;5076517;28;20485;-69
2022/09/11 10:59:59;;;;;;;3.70;1.50;;;17.70;99.90;;;;;;5067968;28;20568;-70
2022/09/11 11:02:30;;;;;;;3.42;1.40;;;17.70;99.90;;;;;;5054620;28;20143;-70
2022/09/11 11:05:17;;;;;;;2.10;1.30;;;17.70;99.90;;;;;;5054957;28;20048;-70
2022/09/11 11:08:10;;;;;;;2.88;1.92;;;17.70;99.90;;;;;;5064905;28;20051;-69
2022/09/11 11:11:05;;;;;;;2.65;1.58;;;17.60;99.90;;;;;;5051233;28;20052;-69
2022/09/11 11:14:06;;;;;;;1.95;1.58;;;17.70;99.90;;;;;;5063263;28;20056;-69
2022/09/11 11:17:35;;;;;;;3.58;1.80;;;17.70;99.90;;;;;;5072485;28;20047;-69
2022/09/11 11:20:30;;;;;;;3.55;1.30;;;17.90;99.90;;;;;;5057767;28;20055;-70
2022/09/11 11:22:57;;;;;;;2.63;1.83;;;18.00;99.90;;;;;;5075874;28;20155;-69
2022/09/11 11:25:47;;;;;;;2.45;1.35;;;18.00;99.90;;;;;;5061606;28;20029;-69
2022/09/11 11:28:22;;;;;;;3.55;1.42;;;18.10;99.90;;;;;;5067403;28;20054;-69
2022/09/11 11:31:03;;;;;;;3.28;1.60;;;18.10;99.90;;;;;;5066712;28;20611;-69
2022/09/11 11:33:49;;;;;;;3.07;1.30;;;18.20;99.90;;;;;;5055444;28;20063;-69
2022/09/11 11:36:44;;;;;;;3.95;1.48;;;18.10;99.90;;;;;;5064768;28;20305;-72
2022/09/11 11:39:29;;;;;;;2.63;1.60;;;17.90;99.90;;;;;;5072827;28;20044;-69
2022/09/11 11:42:25;;;;;;;2.63;1.58;;;18.10;99.90;;;;;;5076578;28;20049;-74
2022/09/11 11:45:19;;;;;;;2.25;1.40;;;18.10;99.90;;;;;;5054166;28;21446;-72
2022/09/11 11:47:46;;;;;;;2.42;1.05;;;18.20;99.90;;;;;;5047911;28;20048;-72
2022/09/11 11:50:39;;;;;;;3.00;1.10;;;18.50;99.90;;;;;;5072647;28;20111;-71
2022/09/11 11:53:36;;;;;;;2.72;1.80;;;18.50;99.90;;;;;;5050562;28;20055;-73
2022/09/11 11:56:27;;;;;;;6.32;1.42;;;18.60;99.90;;;;;;5037910;28;20044;-71
2022/09/11 11:59:30;;;;;;;1.58;1.00;;;18.90;99.90;;;;;;5056073;28;20053;-71
2022/09/11 12:02:08;;;;;;;3.78;1.58;;;19.00;99.90;;;;;;5019525;28;20049;-71
2022/09/11 12:04:55;;;;;;;1.70;1.17;;;19.10;99.90;;;;;;5063696;28;20041;-71
2022/09/11 12:07:31;;;;;;;2.88;1.73;;;19.10;99.90;;;;;;5061098;28;21022;-70
2022/09/11 12:10:00;;;;;;;2.80;1.17;;;19.20;99.90;;;;;;5057148;28;20091;-71
2022/09/11 12:12:32;;;;;;;3.08;1.45;;;19.30;99.90;;;;;;5071991;28;20537;-71
2022/09/11 12:15:08;;;;;;;1.85;1.40;;;19.30;99.90;;;;;;5066835;28;20044;-71
2022/09/11 12:17:37;;;;;;;1.85;1.15;;;19.20;99.90;;;;;;5046737;28;20039;-71
2022/09/11 12:20:11;;;;;;;1.98;1.20;;;19.20;99.90;;;;;;5054418;28;20056;-71
2022/09/11 12:22:48;;;;;;;1.63;1.10;;;19.20;99.90;;;;;;5054651;28;20611;-72
2022/09/11 12:25:20;;;;;;;1.48;1.00;;;19.10;99.90;;;;;;5047432;28;20060;-71
2022/09/11 12:27:47;;;;;;;;;;;19.10;99.90;;;;;;5073911;28;21273;-70
2022/09/11 12:30:16;;;;;;;4.20;1.10;;;19.30;99.90;;;;;;5058358;28;19969;-70
2022/09/11 12:32:45;;;;;;;3.45;1.25;;;19.30;99.90;;;;;;5063323;28;20063;-70
2022/09/11 12:35:37;;;;;;;2.75;1.00;;;19.40;99.90;;;;;;5046713;28;20032;-70
2022/09/11 12:38:06;;;;;;;3.03;1.00;;;19.40;99.90;;;;;;5063935;28;20067;-72
2022/09/11 12:40:40;;;;;;;2.08;1.00;;;19.40;99.90;;;;;;5067697;28;20041;-74
2022/09/11 12:43:25;;;;;;;2.10;1.13;;;19.40;99.90;;;;;;5045105;28;20049;-70
2022/09/11 12:45:51;;;;;;;1.52;1.20;;;19.60;99.90;;;;;;5055175;28;20036;-71
2022/09/11 12:48:24;;;;;;;1.98;1.10;;;19.70;99.90;;;;;;5054256;28;20685;-71
2022/09/11 12:50:54;;;;;;;1.58;1.00;;;19.70;99.90;;;;;;5050547;28;20044;-71
2022/09/11 12:53:28;;;;;;;3.00;1.50;;;19.70;99.90;;;;;;5074970;28;20546;-70
2022/09/11 12:56:06;;;;;;;4.57;1.75;;;19.70;99.90;;;;;;5073763;28;20036;-71
2022/09/11 12:58:43;;;;;;;2.80;1.00;;;19.80;99.90;;;;;;5069672;28;20099;-71
2022/09/11 13:01:34;;;;;;;1.85;1.20;;;20.00;99.90;;;;;;5051140;28;20191;-70
2022/09/11 13:04:15;;;;;;;1.27;1.00;;;20.10;99.90;;;;;;5066655;28;20049;-71
2022/09/11 13:06:55;;;;;;;1.73;0.90;;;20.30;99.90;;;;;;5054389;28;20068;-71
2022/09/11 13:09:20;;;;;;;4.25;1.33;;;20.30;99.90;;;;;;5062018;28;20361;-70
2022/09/11 13:11:49;;;;;;;3.42;1.10;;;20.20;99.90;;;;;;5052758;28;20120;-70
2022/09/11 13:14:27;;;;;;;1.92;0.85;;;20.10;99.90;;;;;;5051018;28;20071;-71